createdAt,value
2017-02-02T00:00:13.515Z,1002.2
2017-02-02T00:01:23.227Z,1002.14
2017-02-02T00:02:33.376Z,1002.15
2017-02-02T00:03:43.572Z,1002.05
2017-02-02T00:04:52.854Z,1002.12
2017-02-02T00:06:02.134Z,1002.11
2017-02-02T00:07:11.854Z,1002.07
2017-02-02T00:08:21.564Z,1002.07
2017-02-02T00:09:31.771Z,1002.08
2017-02-02T00:10:42.361Z,1002.11
2017-02-02T00:11:52.085Z,1002.06
2017-02-02T00:13:02.235Z,1002.04
2017-02-02T00:14:12.825Z,1002.05
2017-02-02T00:15:22.152Z,1002.01
2017-02-02T00:16:31.875Z,1001.98
2017-02-02T00:17:42.032Z,1001.97
2017-02-02T00:18:52.621Z,1001.94
2017-02-02T00:20:03.201Z,1001.96
2017-02-02T00:21:12.968Z,1001.95
2017-02-02T00:22:22.683Z,1001.91
2017-02-02T00:23:32.834Z,1001.9
2017-02-02T00:24:42.547Z,1001.88
2017-02-02T00:25:52.263Z,1001.88
2017-02-02T00:27:01.590Z,1001.86
2017-02-02T00:28:11.303Z,1001.83
2017-02-02T00:29:21.908Z,1001.81
2017-02-02T00:30:32.066Z,1001.79
2017-02-02T00:31:41.777Z,1001.73
2017-02-02T00:32:52.419Z,1001.7
2017-02-02T00:34:02.131Z,1001.72
2017-02-02T00:35:11.419Z,1001.69
2017-02-02T00:36:21.135Z,1001.67
2017-02-02T00:37:31.723Z,1001.63
2017-02-02T00:38:41.489Z,1001.63
2017-02-02T00:39:51.209Z,1001.67
2017-02-02T00:41:00.490Z,1001.67
2017-02-02T00:42:11.075Z,1001.69
2017-02-02T00:43:21.227Z,1001.71
2017-02-02T00:44:31.427Z,1001.7
2017-02-02T00:45:41.580Z,1001.71
2017-02-02T00:46:51.291Z,1001.72
2017-02-02T00:48:01.002Z,1001.67
2017-02-02T00:49:10.285Z,1001.68
2017-02-02T00:50:19.618Z,1001.7
2017-02-02T00:51:29.769Z,1001.7
2017-02-02T00:52:39.490Z,1001.69
2017-02-02T00:53:48.776Z,1001.66
2017-02-02T00:54:58.061Z,1001.7
2017-02-02T00:56:07.834Z,1001.7
2017-02-02T00:57:17.985Z,1001.66
2017-02-02T00:58:27.701Z,1001.68
2017-02-02T00:59:37.430Z,1001.68
2017-02-02T01:00:47.143Z,1001.71
2017-02-02T01:01:57.382Z,1001.67
2017-02-02T01:03:07.095Z,1001.61
2017-02-02T01:04:16.812Z,1001.62
2017-02-02T01:05:26.532Z,1001.6
2017-02-02T01:06:35.813Z,1001.64
2017-02-02T01:07:46.011Z,1001.6
2017-02-02T01:08:55.728Z,1001.57
2017-02-02T01:10:05.877Z,1001.59
2017-02-02T01:11:15.159Z,1001.57
2017-02-02T01:12:24.872Z,1001.59
2017-02-02T01:13:34.642Z,1001.59
2017-02-02T01:14:44.800Z,1001.59
2017-02-02T01:15:54.092Z,1001.57
2017-02-02T01:17:04.237Z,1001.59
2017-02-02T01:18:13.513Z,1001.53
2017-02-02T01:19:23.286Z,1001.55
2017-02-02T01:20:33.433Z,1001.58
2017-02-02T01:21:44.014Z,1001.48
2017-02-02T01:22:54.171Z,1001.48
2017-02-02T01:24:03.453Z,1001.48
2017-02-02T01:25:13.674Z,1001.5
2017-02-02T01:26:23.825Z,1001.54
2017-02-02T01:27:33.980Z,1001.52
2017-02-02T01:28:43.264Z,1001.54
2017-02-02T01:29:52.545Z,1001.53
2017-02-02T01:31:02.315Z,1001.57
2017-02-02T01:32:12.903Z,1001.54
2017-02-02T01:33:22.622Z,1001.52
2017-02-02T01:34:32.332Z,1001.5
2017-02-02T01:35:42.043Z,1001.43
2017-02-02T01:36:51.816Z,1001.43
2017-02-02T01:38:01.961Z,1001.44
2017-02-02T01:39:11.688Z,1001.42
2017-02-02T01:40:20.969Z,1001.45
2017-02-02T01:41:31.126Z,1001.43
2017-02-02T01:42:40.890Z,1001.4
2017-02-02T01:43:50.604Z,1001.41
2017-02-02T01:45:00.326Z,1001.43
2017-02-02T01:46:10.483Z,1001.42
2017-02-02T01:47:20.655Z,1001.41
2017-02-02T01:48:30.857Z,1001.38
2017-02-02T01:49:41.010Z,1001.42
2017-02-02T01:50:50.722Z,1001.4
2017-02-02T01:52:00.877Z,1001.36
2017-02-02T01:53:10.598Z,1001.41
2017-02-02T01:54:20.800Z,1001.41
2017-02-02T01:55:30.521Z,1001.35
2017-02-02T01:56:40.669Z,1001.34
2017-02-02T01:57:49.950Z,1001.32
2017-02-02T01:58:59.669Z,1001.3
2017-02-02T02:00:09.869Z,1001.31
2017-02-02T02:01:20.021Z,1001.31
2017-02-02T02:02:29.735Z,1001.32
2017-02-02T02:03:39.449Z,1001.36
2017-02-02T02:04:49.161Z,1001.29
2017-02-02T02:05:58.489Z,1001.31
2017-02-02T02:07:08.205Z,1001.25
2017-02-02T02:08:17.924Z,1001.25
2017-02-02T02:09:27.223Z,1001.27
2017-02-02T02:10:37.378Z,1001.25
2017-02-02T02:11:49.740Z,1001.27
2017-02-02T02:13:00.338Z,1001.26
2017-02-02T02:14:10.062Z,1001.29
2017-02-02T02:15:19.347Z,1001.26
2017-02-02T02:16:29.072Z,1001.27
2017-02-02T02:17:40.153Z,1001.25
2017-02-02T02:18:49.432Z,1001.21
2017-02-02T02:19:58.711Z,1001.21
2017-02-02T02:21:08.865Z,1001.17
2017-02-02T02:22:19.030Z,1001.16
2017-02-02T02:23:29.247Z,1001.12
2017-02-02T02:24:38.974Z,1001.06
2017-02-02T02:25:48.695Z,1001.09
2017-02-02T02:26:58.851Z,1001.09
2017-02-02T02:28:08.572Z,1001.02
2017-02-02T02:29:18.347Z,1001.03
2017-02-02T02:30:27.635Z,1000.99
2017-02-02T02:31:37.361Z,1000.96
2017-02-02T02:32:46.645Z,1000.97
2017-02-02T02:33:55.935Z,1000.89
2017-02-02T02:35:05.708Z,1000.86
2017-02-02T02:36:15.452Z,1000.84
2017-02-02T02:37:25.174Z,1000.78
2017-02-02T02:38:34.895Z,1000.79
2017-02-02T02:39:45.052Z,1000.79
2017-02-02T02:40:55.273Z,1000.73
2017-02-02T02:42:04.995Z,1000.85
2017-02-02T02:43:14.723Z,1000.75
2017-02-02T02:44:24.444Z,1000.77
2017-02-02T02:45:34.163Z,1000.73
2017-02-02T02:46:44.391Z,1000.8
2017-02-02T02:47:54.112Z,1000.75
2017-02-02T02:49:04.270Z,1000.76
2017-02-02T02:50:14.426Z,1000.71
2017-02-02T02:51:24.149Z,1000.73
2017-02-02T02:52:33.911Z,1000.71
2017-02-02T02:53:43.635Z,1000.71
2017-02-02T02:54:52.915Z,1000.64
2017-02-02T02:56:03.081Z,1000.69
2017-02-02T02:57:13.239Z,1000.63
2017-02-02T02:58:22.575Z,1000.58
2017-02-02T02:59:32.732Z,1000.61
2017-02-02T03:00:42.019Z,1000.59
2017-02-02T03:01:51.750Z,1000.58
2017-02-02T03:03:01.909Z,1000.63
2017-02-02T03:04:12.114Z,1000.64
2017-02-02T03:05:21.830Z,1000.62
2017-02-02T03:06:31.547Z,1000.66
2017-02-02T03:07:41.710Z,1000.65
2017-02-02T03:08:50.985Z,1000.64
2017-02-02T03:10:00.762Z,1000.61
2017-02-02T03:11:10.488Z,1000.62
2017-02-02T03:12:19.781Z,1000.66
2017-02-02T03:13:29.974Z,1000.62
2017-02-02T03:14:39.263Z,1000.64
2017-02-02T03:15:49.038Z,1000.59
2017-02-02T03:16:59.190Z,1000.61
2017-02-02T03:18:08.912Z,1000.6
2017-02-02T03:19:18.633Z,1000.61
2017-02-02T03:20:28.785Z,1000.56
2017-02-02T03:21:38.999Z,1000.55
2017-02-02T03:22:48.728Z,1000.52
2017-02-02T03:23:58.453Z,1000.52
2017-02-02T03:25:08.615Z,1000.48
2017-02-02T03:26:18.762Z,1000.47
2017-02-02T03:27:28.547Z,1000.45
2017-02-02T03:28:38.274Z,1000.43
2017-02-02T03:29:48.010Z,1000.42
2017-02-02T03:30:57.729Z,1000.43
2017-02-02T03:32:07.886Z,1000.42
2017-02-02T03:33:17.669Z,1000.42
2017-02-02T03:34:28.271Z,1000.4
2017-02-02T03:35:37.992Z,1000.38
2017-02-02T03:36:47.719Z,1000.37
2017-02-02T03:37:57.012Z,1000.42
2017-02-02T03:39:07.227Z,1000.42
2017-02-02T03:40:16.942Z,1000.4
2017-02-02T03:41:26.223Z,1000.37
2017-02-02T03:42:35.939Z,1000.37
2017-02-02T03:43:46.536Z,1000.35
2017-02-02T03:44:56.313Z,1000.36
2017-02-02T03:46:05.605Z,1000.35
2017-02-02T03:47:15.325Z,1000.36
2017-02-02T03:48:24.608Z,1000.34
2017-02-02T03:49:35.211Z,1000.35
2017-02-02T03:50:44.545Z,1000.36
2017-02-02T03:51:54.264Z,1000.36
2017-02-02T03:53:04.425Z,1000.41
2017-02-02T03:54:13.722Z,1000.42
2017-02-02T03:55:23.877Z,1000.33
2017-02-02T03:56:33.642Z,1000.32
2017-02-02T03:57:42.919Z,1000.29
2017-02-02T03:58:53.079Z,1000.25
2017-02-02T04:00:03.246Z,1000.26
2017-02-02T04:01:13.406Z,1000.24
2017-02-02T04:02:23.618Z,1000.21
2017-02-02T04:03:32.906Z,1000.28
2017-02-02T04:04:43.073Z,1000.24
2017-02-02T04:05:52.802Z,1000.24
2017-02-02T04:07:02.957Z,1000.27
2017-02-02T04:08:12.721Z,1000.27
2017-02-02T04:09:22.873Z,1000.24
2017-02-02T04:10:32.603Z,1000.25
2017-02-02T04:11:42.761Z,1000.21
2017-02-02T04:12:52.484Z,1000.17
2017-02-02T04:14:02.702Z,1000.15
2017-02-02T04:15:12.418Z,1000.18
2017-02-02T04:16:22.577Z,1000.16
2017-02-02T04:17:32.741Z,1000.13
2017-02-02T04:18:42.468Z,1000.17
2017-02-02T04:19:51.800Z,1000.14
2017-02-02T04:21:01.521Z,1000.15
2017-02-02T04:22:11.245Z,1000.15
2017-02-02T04:23:21.841Z,1000.13
2017-02-02T04:24:31.125Z,1000.16
2017-02-02T04:25:40.911Z,1000.2
2017-02-02T04:26:51.067Z,1000.2
2017-02-02T04:28:00.793Z,1000.16
2017-02-02T04:29:11.405Z,1000.15
2017-02-02T04:30:21.127Z,1000.1
2017-02-02T04:31:30.462Z,1000.14
2017-02-02T04:32:41.053Z,1000.19
2017-02-02T04:33:50.810Z,1000.15
2017-02-02T04:35:00.967Z,1000.18
2017-02-02T04:36:11.132Z,1000.16
2017-02-02T04:37:21.342Z,1000.11
2017-02-02T04:38:31.063Z,1000.14
2017-02-02T04:39:41.220Z,1000.14
2017-02-02T04:40:51.381Z,1000.1
2017-02-02T04:42:01.099Z,1000.09
2017-02-02T04:43:11.466Z,1000.02
2017-02-02T04:44:21.189Z,1000.05
2017-02-02T04:45:30.906Z,1000.05
2017-02-02T04:46:41.507Z,1000.03
2017-02-02T04:47:51.233Z,1000
2017-02-02T04:49:01.003Z,1000.01
2017-02-02T04:50:11.165Z,1000.01
2017-02-02T04:51:21.749Z,1000.06
2017-02-02T04:52:31.462Z,1000.06
2017-02-02T04:53:41.174Z,1000.06
2017-02-02T04:54:50.947Z,1000.07
2017-02-02T04:56:00.670Z,1000.05
2017-02-02T04:57:10.833Z,1000.01
2017-02-02T04:58:20.555Z,1000.08
2017-02-02T04:59:30.304Z,1000.05
2017-02-02T05:00:40.081Z,1000.06
2017-02-02T05:01:49.806Z,1000.1
2017-02-02T05:03:00.408Z,1000.09
2017-02-02T05:04:10.128Z,1000.16
2017-02-02T05:05:19.854Z,1000.09
2017-02-02T05:06:29.623Z,1000.14
2017-02-02T05:07:39.340Z,1000.11
2017-02-02T05:08:48.633Z,1000.05
2017-02-02T05:09:58.802Z,1000.07
2017-02-02T05:11:08.989Z,1000.1
2017-02-02T05:12:18.321Z,1000.12
2017-02-02T05:13:28.046Z,1000.12
2017-02-02T05:14:37.772Z,1000.12
2017-02-02T05:15:47.054Z,1000.13
2017-02-02T05:16:56.786Z,1000.16
2017-02-02T05:18:07.195Z,1000.16
2017-02-02T05:19:16.488Z,1000.15
2017-02-02T05:20:27.097Z,1000.16
2017-02-02T05:21:36.822Z,1000.17
2017-02-02T05:22:47.430Z,1000.19
2017-02-02T05:23:57.632Z,1000.15
2017-02-02T05:25:07.795Z,1000.2
2017-02-02T05:26:17.955Z,1000.21
2017-02-02T05:27:28.109Z,1000.18
2017-02-02T05:28:37.393Z,1000.21
2017-02-02T05:29:48.054Z,1000.21
2017-02-02T05:30:58.219Z,1000.28
2017-02-02T05:32:07.941Z,1000.25
2017-02-02T05:33:17.226Z,1000.27
2017-02-02T05:34:27.382Z,1000.23
2017-02-02T05:35:36.720Z,1000.3
2017-02-02T05:36:46.441Z,1000.26
2017-02-02T05:37:55.724Z,1000.26
2017-02-02T05:39:05.007Z,1000.27
2017-02-02T05:40:14.735Z,1000.25
2017-02-02T05:41:24.958Z,1000.23
2017-02-02T05:42:34.675Z,1000.21
2017-02-02T05:43:44.392Z,1000.19
2017-02-02T05:44:54.989Z,1000.17
2017-02-02T05:46:05.154Z,1000.16
2017-02-02T05:47:16.253Z,1000.17
2017-02-02T05:48:25.978Z,1000.15
2017-02-02T05:49:36.130Z,1000.1
2017-02-02T05:50:45.409Z,1000.17
2017-02-02T05:51:54.690Z,1000.15
2017-02-02T05:53:04.470Z,1000.13
2017-02-02T05:54:14.205Z,1000.16
2017-02-02T05:55:23.484Z,1000.17
2017-02-02T05:56:33.209Z,1000.12
2017-02-02T05:57:42.934Z,1000.12
2017-02-02T05:58:53.589Z,1000.09
2017-02-02T06:00:03.753Z,1000.06
2017-02-02T06:01:13.477Z,1000.04
2017-02-02T06:02:23.202Z,1000.05
2017-02-02T06:03:33.802Z,1000
2017-02-02T06:04:43.129Z,1000.04
2017-02-02T06:05:52.855Z,1000.07
2017-02-02T06:07:02.144Z,1000.02
2017-02-02T06:08:11.865Z,1000.01
2017-02-02T06:09:22.025Z,1000.02
2017-02-02T06:10:32.671Z,1000
2017-02-02T06:11:42.840Z,1000.01
2017-02-02T06:12:52.567Z,999.97
2017-02-02T06:14:02.283Z,1000.05
2017-02-02T06:15:11.566Z,1000.06
2017-02-02T06:16:20.933Z,1000.11
2017-02-02T06:17:31.083Z,1000.06
2017-02-02T06:18:41.232Z,1000.06
2017-02-02T06:19:51.392Z,1000.03
2017-02-02T06:21:01.982Z,1000.03
2017-02-02T06:22:12.189Z,999.93
2017-02-02T06:23:21.473Z,999.94
2017-02-02T06:24:31.197Z,999.96
2017-02-02T06:25:40.924Z,999.96
2017-02-02T06:26:51.079Z,999.96
2017-02-02T06:28:01.285Z,999.94
2017-02-02T06:29:11.052Z,999.95
2017-02-02T06:30:21.644Z,999.92
2017-02-02T06:31:30.923Z,999.89
2017-02-02T06:32:41.507Z,999.88
2017-02-02T06:33:51.274Z,999.85
2017-02-02T06:35:01.003Z,999.84
2017-02-02T06:36:10.717Z,999.82
2017-02-02T06:37:20.879Z,999.8
2017-02-02T06:38:31.469Z,999.83
2017-02-02T06:39:41.237Z,999.9
2017-02-02T06:40:50.523Z,999.84
2017-02-02T06:41:59.809Z,999.85
2017-02-02T06:43:09.541Z,999.84
2017-02-02T06:44:18.831Z,999.82
2017-02-02T06:45:28.315Z,999.8
2017-02-02T06:46:38.043Z,999.8
2017-02-02T06:47:47.774Z,999.87
2017-02-02T06:48:57.057Z,999.85
2017-02-02T06:50:06.776Z,999.89
2017-02-02T06:51:16.544Z,999.87
2017-02-02T06:52:26.273Z,999.87
2017-02-02T06:53:36.444Z,999.88
2017-02-02T06:54:46.160Z,999.89
2017-02-02T06:55:55.877Z,999.89
2017-02-02T06:57:06.083Z,999.89
2017-02-02T06:58:15.799Z,999.92
2017-02-02T06:59:25.529Z,999.91
2017-02-02T07:00:35.687Z,999.92
2017-02-02T07:01:45.408Z,999.97
2017-02-02T07:02:55.187Z,999.9
2017-02-02T07:04:04.910Z,999.92
2017-02-02T07:05:14.199Z,999.9
2017-02-02T07:06:23.917Z,999.92
2017-02-02T07:07:33.654Z,999.84
2017-02-02T07:08:43.427Z,999.79
2017-02-02T07:09:53.152Z,999.74
2017-02-02T07:11:03.326Z,999.8
2017-02-02T07:12:13.049Z,999.77
2017-02-02T07:13:23.216Z,999.74
2017-02-02T07:14:32.985Z,999.76
2017-02-02T07:15:42.710Z,999.76
2017-02-02T07:16:51.986Z,999.78
2017-02-02T07:18:02.153Z,999.79
2017-02-02T07:19:12.297Z,999.8
2017-02-02T07:20:22.935Z,999.79
2017-02-02T07:21:32.672Z,999.79
2017-02-02T07:22:42.384Z,999.81
2017-02-02T07:23:52.114Z,999.79
2017-02-02T07:25:01.831Z,999.83
2017-02-02T07:26:12.039Z,999.77
2017-02-02T07:27:21.759Z,999.74
2017-02-02T07:28:31.483Z,999.79
2017-02-02T07:29:41.192Z,999.77
2017-02-02T07:30:50.478Z,999.8
2017-02-02T07:32:00.689Z,999.78
2017-02-02T07:33:10.852Z,999.78
2017-02-02T07:34:20.137Z,999.77
2017-02-02T07:35:29.850Z,999.83
2017-02-02T07:36:39.568Z,999.89
2017-02-02T07:37:48.905Z,999.94
2017-02-02T07:38:58.631Z,999.91
2017-02-02T07:40:07.905Z,999.85
2017-02-02T07:41:18.512Z,999.85
2017-02-02T07:42:28.657Z,999.86
2017-02-02T07:43:38.433Z,999.89
2017-02-02T07:44:47.720Z,999.9
2017-02-02T07:45:57.443Z,999.95
2017-02-02T07:47:07.593Z,999.92
2017-02-02T07:48:17.318Z,999.91
2017-02-02T07:49:27.525Z,999.94
2017-02-02T07:50:37.252Z,1000
2017-02-02T07:51:47.399Z,999.94
2017-02-02T07:52:57.119Z,999.98
2017-02-02T07:54:06.837Z,999.94
2017-02-02T07:55:16.606Z,999.98
2017-02-02T07:56:26.771Z,999.97
2017-02-02T07:57:37.363Z,1000.01
2017-02-02T07:58:47.086Z,999.99
2017-02-02T07:59:56.811Z,999.94
2017-02-02T08:01:06.584Z,999.93
2017-02-02T08:02:16.304Z,999.92
2017-02-02T08:03:26.906Z,999.86
2017-02-02T08:04:36.215Z,999.86
2017-02-02T08:05:45.944Z,999.83
2017-02-02T08:06:55.278Z,999.81
2017-02-02T08:08:04.559Z,999.81
2017-02-02T08:09:13.852Z,999.84
2017-02-02T08:10:23.138Z,999.85
2017-02-02T08:11:32.859Z,999.84
2017-02-02T08:12:42.634Z,999.91
2017-02-02T08:13:52.789Z,999.9
2017-02-02T08:15:02.515Z,999.87
2017-02-02T08:16:11.803Z,999.93
2017-02-02T08:17:21.093Z,999.94
2017-02-02T08:18:31.310Z,999.95
2017-02-02T08:19:41.467Z,999.93
2017-02-02T08:20:51.188Z,999.96
2017-02-02T08:22:00.477Z,999.91
2017-02-02T08:23:10.199Z,999.89
2017-02-02T08:24:19.527Z,999.89
2017-02-02T08:25:28.804Z,999.93
2017-02-02T08:26:38.086Z,999.92
2017-02-02T08:27:47.812Z,999.95
2017-02-02T08:28:58.402Z,999.92
2017-02-02T08:30:08.609Z,999.93
2017-02-02T08:31:18.770Z,999.92
2017-02-02T08:32:28.060Z,999.9
2017-02-02T08:33:38.219Z,999.9
2017-02-02T08:34:48.821Z,999.91
2017-02-02T08:35:58.159Z,999.89
2017-02-02T08:37:07.440Z,999.93
2017-02-02T08:38:17.166Z,999.94
2017-02-02T08:39:26.886Z,999.88
2017-02-02T08:40:37.048Z,999.9
2017-02-02T08:41:46.383Z,999.91
2017-02-02T08:42:56.534Z,999.91
2017-02-02T08:44:06.258Z,999.89
2017-02-02T08:45:16.416Z,999.88
2017-02-02T08:46:25.693Z,999.94
2017-02-02T08:47:35.475Z,999.92
2017-02-02T08:48:44.762Z,999.99
2017-02-02T08:49:54.045Z,999.97
2017-02-02T08:51:03.769Z,999.98
2017-02-02T08:52:13.932Z,1000
2017-02-02T08:53:24.136Z,1000.04
2017-02-02T08:54:33.468Z,1000.03
2017-02-02T08:55:43.634Z,1000.03
2017-02-02T08:56:53.388Z,1000.02
2017-02-02T08:58:04.001Z,1000.02
2017-02-02T08:59:13.771Z,1000.04
2017-02-02T09:00:23.056Z,999.97
2017-02-02T09:01:32.789Z,999.98
2017-02-02T09:02:42.078Z,999.99
2017-02-02T09:03:52.233Z,999.98
2017-02-02T09:05:02.449Z,999.95
2017-02-02T09:06:11.738Z,999.95
2017-02-02T09:07:21.467Z,999.98
2017-02-02T09:08:31.198Z,999.99
2017-02-02T09:09:40.913Z,999.95
2017-02-02T09:10:50.682Z,999.96
2017-02-02T09:12:00.399Z,999.92
2017-02-02T09:13:10.119Z,1000
2017-02-02T09:14:20.271Z,1000.06
2017-02-02T09:15:29.569Z,1000.03
2017-02-02T09:16:39.779Z,1000.06
2017-02-02T09:17:50.375Z,1000.03
2017-02-02T09:19:00.977Z,1000.04
2017-02-02T09:20:11.582Z,1000
2017-02-02T09:21:21.307Z,1000.07
2017-02-02T09:22:31.518Z,1000.05
2017-02-02T09:23:40.799Z,1000.09
2017-02-02T09:24:50.520Z,1000.1
2017-02-02T09:26:00.245Z,1000.08
2017-02-02T09:27:09.974Z,1000.07
2017-02-02T09:28:20.175Z,1000.07
2017-02-02T09:29:29.903Z,1000.03
2017-02-02T09:30:39.625Z,1000.04
2017-02-02T09:31:48.917Z,1000.04
2017-02-02T09:32:58.644Z,1000.03
2017-02-02T09:34:08.513Z,1000.04
2017-02-02T09:35:18.232Z,1000.03
2017-02-02T09:36:28.394Z,999.99
2017-02-02T09:38:47.933Z,999.96
2017-02-02T09:39:58.143Z,999.97
2017-02-02T09:41:07.868Z,999.94
2017-02-02T09:42:17.161Z,999.94
2017-02-02T09:43:26.466Z,999.91
2017-02-02T09:44:35.751Z,999.93
2017-02-02T09:45:45.094Z,999.97
2017-02-02T09:46:54.822Z,999.93
2017-02-02T09:48:04.577Z,999.93
2017-02-02T09:49:13.860Z,1000.01
2017-02-02T09:50:24.033Z,999.96
2017-02-02T09:51:34.241Z,999.95
2017-02-02T09:52:44.437Z,999.97
2017-02-02T09:53:54.164Z,999.92
2017-02-02T09:55:03.460Z,999.91
2017-02-02T09:56:13.186Z,999.97
2017-02-02T09:57:22.528Z,999.93
2017-02-02T09:58:32.684Z,999.88
2017-02-02T09:59:42.856Z,999.88
2017-02-02T10:00:53.023Z,999.87
2017-02-02T10:02:02.744Z,999.87
2017-02-02T10:03:12.082Z,999.86
2017-02-02T10:04:21.801Z,999.86
2017-02-02T10:05:31.963Z,999.83
2017-02-02T10:06:41.688Z,999.86
2017-02-02T10:07:51.410Z,999.86
2017-02-02T10:09:01.628Z,999.85
2017-02-02T10:10:11.359Z,999.84
2017-02-02T10:11:21.118Z,999.82
2017-02-02T10:12:30.843Z,999.81
2017-02-02T10:13:40.567Z,999.83
2017-02-02T10:14:49.905Z,999.82
2017-02-02T10:16:00.066Z,999.77
2017-02-02T10:17:09.795Z,999.71
2017-02-02T10:18:19.952Z,999.75
2017-02-02T10:19:29.677Z,999.71
2017-02-02T10:20:39.446Z,999.73
2017-02-02T10:21:48.724Z,999.74
2017-02-02T10:22:58.453Z,999.74
2017-02-02T10:24:08.173Z,999.72
2017-02-02T10:25:17.462Z,999.75
2017-02-02T10:26:27.337Z,999.71
2017-02-02T10:27:37.057Z,999.69
2017-02-02T10:28:46.349Z,999.66
2017-02-02T10:29:56.071Z,999.65
2017-02-02T10:31:05.790Z,999.63
2017-02-02T10:32:16.001Z,999.62
2017-02-02T10:33:25.290Z,999.63
2017-02-02T10:34:35.452Z,999.63
2017-02-02T10:35:45.613Z,999.64
2017-02-02T10:36:54.923Z,999.63
2017-02-02T10:38:04.734Z,999.66
2017-02-02T10:39:14.454Z,999.65
2017-02-02T10:40:24.173Z,999.6
2017-02-02T10:41:34.344Z,999.58
2017-02-02T10:42:44.072Z,999.58
2017-02-02T10:43:54.283Z,999.49
2017-02-02T10:45:03.570Z,999.54
2017-02-02T10:46:13.300Z,999.53
2017-02-02T10:47:23.474Z,999.49
2017-02-02T10:48:32.763Z,999.5
2017-02-02T10:49:42.991Z,999.63
2017-02-02T10:50:52.722Z,999.46
2017-02-02T10:52:02.015Z,999.5
2017-02-02T10:53:11.298Z,999.42
2017-02-02T10:54:21.454Z,999.53
2017-02-02T10:55:31.263Z,999.44
2017-02-02T10:56:41.423Z,999.46
2017-02-02T10:57:50.705Z,999.44
2017-02-02T10:58:59.990Z,999.43
2017-02-02T11:00:09.738Z,999.43
2017-02-02T11:01:19.521Z,999.38
2017-02-02T11:02:29.250Z,999.38
2017-02-02T11:03:39.403Z,999.37
2017-02-02T11:04:49.552Z,999.37
2017-02-02T11:05:58.836Z,999.43
2017-02-02T11:07:09.054Z,999.42
2017-02-02T11:08:18.789Z,999.39
2017-02-02T11:09:28.517Z,999.38
2017-02-02T11:10:37.802Z,999.35
2017-02-02T11:11:47.531Z,999.34
2017-02-02T11:12:56.873Z,999.33
2017-02-02T11:14:06.597Z,999.28
2017-02-02T11:15:15.886Z,999.2
2017-02-02T11:16:25.608Z,999.22
2017-02-02T11:17:35.788Z,999.16
2017-02-02T11:18:45.154Z,999.18
2017-02-02T11:19:54.883Z,999.14
2017-02-02T11:21:04.604Z,999.11
2017-02-02T11:22:13.898Z,999.06
2017-02-02T11:23:23.183Z,999.03
2017-02-02T11:24:33.592Z,999.03
2017-02-02T11:25:42.907Z,998.99
2017-02-02T11:26:52.634Z,998.92
2017-02-02T11:28:04.823Z,998.91
2017-02-02T11:29:18.280Z,998.84
2017-02-02T11:30:32.002Z,998.87
2017-02-02T11:31:44.565Z,998.86
2017-02-02T11:32:56.674Z,998.81
2017-02-02T11:34:09.228Z,998.85
2017-02-02T11:35:20.844Z,998.83
2017-02-02T11:36:33.299Z,998.8
2017-02-02T11:37:47.327Z,998.8
2017-02-02T11:39:01.782Z,998.82
2017-02-02T11:40:13.541Z,998.75
2017-02-02T11:41:27.119Z,998.76
2017-02-02T11:42:38.964Z,998.8
2017-02-02T11:43:51.122Z,998.77
2017-02-02T11:45:04.164Z,998.76
2017-02-02T11:46:16.223Z,998.76
2017-02-02T11:47:28.153Z,998.77
2017-02-02T11:48:41.582Z,998.75
2017-02-02T11:49:52.456Z,998.78
2017-02-02T11:51:02.993Z,998.72
2017-02-02T11:52:14.334Z,998.76
2017-02-02T11:53:26.264Z,998.75
2017-02-02T11:54:36.730Z,998.69
2017-02-02T11:55:47.618Z,998.65
2017-02-02T11:56:58.871Z,998.68
2017-02-02T11:58:10.344Z,998.69
2017-02-02T11:59:20.655Z,998.71
2017-02-02T12:00:31.460Z,998.65
2017-02-02T12:01:40.849Z,998.59
2017-02-02T12:02:55.410Z,998.57
2017-02-02T12:04:05.186Z,998.56
2017-02-02T12:05:15.355Z,998.57
2017-02-02T12:06:28.118Z,998.49
2017-02-02T12:07:46.666Z,998.51
2017-02-02T12:08:56.399Z,998.5
2017-02-02T12:10:05.753Z,998.49
2017-02-02T12:11:15.927Z,998.48
2017-02-02T12:12:25.218Z,998.49
2017-02-02T12:13:35.536Z,998.49
2017-02-02T12:14:46.015Z,998.47
2017-02-02T12:15:55.735Z,998.5
2017-02-02T12:17:05.020Z,998.43
2017-02-02T12:18:15.364Z,998.45
2017-02-02T12:19:24.758Z,998.48
2017-02-02T12:20:34.352Z,998.45
2017-02-02T12:21:44.418Z,998.48
2017-02-02T12:22:53.706Z,998.45
2017-02-02T12:24:03.436Z,998.45
2017-02-02T12:25:12.720Z,998.45
2017-02-02T12:26:22.381Z,998.44
2017-02-02T12:27:31.695Z,998.43
2017-02-02T12:28:41.072Z,998.5
2017-02-02T12:29:50.446Z,998.47
2017-02-02T12:31:00.593Z,998.48
2017-02-02T12:32:10.825Z,998.45
2017-02-02T12:33:20.822Z,998.44
2017-02-02T12:34:30.621Z,998.43
2017-02-02T12:35:40.604Z,998.4
2017-02-02T12:36:49.889Z,998.38
2017-02-02T12:37:59.226Z,998.33
2017-02-02T12:39:09.234Z,998.29
2017-02-02T12:40:19.832Z,998.28
2017-02-02T12:41:29.225Z,998.29
2017-02-02T12:42:39.183Z,998.31
2017-02-02T12:43:49.613Z,998.24
2017-02-02T12:44:59.777Z,998.22
2017-02-02T12:46:09.542Z,998.2
2017-02-02T12:47:19.275Z,998.11
2017-02-02T12:48:28.997Z,998.1
2017-02-02T12:49:38.354Z,998.15
2017-02-02T12:50:47.722Z,998.17
2017-02-02T12:51:57.468Z,998.16
2017-02-02T12:53:07.296Z,998.19
2017-02-02T12:54:16.655Z,998.19
2017-02-02T12:55:27.000Z,998.19
2017-02-02T12:56:37.172Z,998.18
2017-02-02T12:57:47.884Z,998.19
2017-02-02T12:58:59.238Z,998.19
2017-02-02T13:00:09.603Z,998.19
2017-02-02T13:01:19.557Z,998.16
2017-02-02T13:02:29.615Z,998.13
2017-02-02T13:03:40.248Z,998.1
2017-02-02T13:04:50.934Z,998.12
2017-02-02T13:06:00.313Z,998.07
2017-02-02T13:07:10.110Z,998.04
2017-02-02T13:08:20.285Z,997.98
2017-02-02T13:09:29.564Z,998.05
2017-02-02T13:10:40.908Z,998.09
2017-02-02T13:11:50.200Z,998.06
2017-02-02T13:12:59.546Z,998.07
2017-02-02T13:14:09.283Z,998.08
2017-02-02T13:15:19.203Z,998.06
2017-02-02T13:16:29.341Z,998.04
2017-02-02T13:17:39.196Z,998.03
2017-02-02T13:18:49.417Z,998.04
2017-02-02T13:19:59.593Z,998.02
2017-02-02T13:21:09.485Z,997.96
2017-02-02T13:22:24.131Z,997.95
2017-02-02T13:23:35.433Z,997.97
2017-02-02T13:24:47.481Z,997.93
2017-02-02T13:26:01.375Z,997.94
2017-02-02T13:27:14.847Z,997.91
2017-02-02T13:28:27.495Z,997.84
2017-02-02T13:29:41.004Z,997.85
2017-02-02T13:30:53.298Z,997.8
2017-02-02T13:32:06.803Z,997.79
2017-02-02T13:33:18.846Z,997.8
2017-02-02T13:34:32.581Z,997.73
2017-02-02T13:35:44.539Z,997.72
2017-02-02T13:36:56.410Z,997.67
2017-02-02T13:38:09.479Z,997.69
2017-02-02T13:39:19.826Z,997.66
2017-02-02T13:40:30.355Z,997.66
2017-02-02T13:41:39.885Z,997.6
2017-02-02T13:42:50.223Z,997.54
2017-02-02T13:44:00.685Z,997.47
2017-02-02T13:45:09.976Z,997.45
2017-02-02T13:46:20.031Z,997.44
2017-02-02T13:47:29.379Z,997.45
2017-02-02T13:48:39.117Z,997.41
2017-02-02T13:49:50.380Z,997.4
2017-02-02T13:50:59.675Z,997.38
2017-02-02T13:52:09.837Z,997.36
2017-02-02T13:53:19.621Z,997.34
2017-02-02T13:54:29.383Z,997.34
2017-02-02T13:55:40.321Z,997.39
2017-02-02T13:56:50.058Z,997.39
2017-02-02T13:57:59.351Z,997.4
2017-02-02T13:59:09.676Z,997.42
2017-02-02T14:00:19.737Z,997.42
2017-02-02T14:01:29.030Z,997.39
2017-02-02T14:02:38.766Z,997.37
2017-02-02T14:03:48.500Z,997.41
2017-02-02T14:04:58.279Z,997.35
2017-02-02T14:06:08.307Z,997.41
2017-02-02T14:07:18.468Z,997.35
2017-02-02T14:08:28.621Z,997.38
2017-02-02T14:09:39.487Z,997.35
2017-02-02T14:10:49.262Z,997.35
2017-02-02T14:11:59.649Z,997.37
2017-02-02T14:13:08.925Z,997.38
2017-02-02T14:14:19.116Z,997.36
2017-02-02T14:15:29.023Z,997.3
2017-02-02T14:16:39.754Z,997.33
2017-02-02T14:17:49.233Z,997.3
2017-02-02T14:18:58.961Z,997.31
2017-02-02T14:20:08.691Z,997.39
2017-02-02T14:21:17.987Z,997.43
2017-02-02T14:22:27.328Z,997.43
2017-02-02T14:23:36.627Z,997.41
2017-02-02T14:24:46.909Z,997.44